Aviation Digital Data Service (ADDS)

Output produced by METARs form (0236 UTC 22 July 2017)
found at http://www.aviationweather.gov/adds/metars/
 
LLBG 220220Z 16005KT 9999 FEW022 25/21 Q1008 NOSIG
TAF LLBG 212305Z 2200/2224 15004KT 9999 SCT022 
     TEMPO 2201/2206 BKN020 
     BECMG 2207/2209 CAVOK 
     BECMG 2215/2218 VRB04KT 9999 FEW025 
     BECMG 2221/2223 15004KT SCT025 TX32/2212Z TN25/2203Z
       
TAF LLET 212326Z 2200/2224 36010KT CAVOK 
     BECMG 2205/2207 02015KT 
     PROB30 2214/2219 18005KT 
     BECMG 2220/2222 36010KT TX41/2212Z TN28/2203Z
       
TAF LLHA 212307Z 2200/2224 VRB04KT 9999 SCT023 
     TEMPO 2200/2205 BKN020 
     BECMG 2207/2209 30010KT FEW026 
     BECMG 2216/2219 VRB04KT SCT025 TX31/2212Z TN27/2203Z
       
TAF LLIB 211124Z 2112/2212 17008KT CAVOK 
     BECMG 2113/2115 32010KT 
     BECMG 2117/2119 VRB03KT 9999 FEW020 
     PROB30 2200/2206 6000 SCT015 
     BECMG 2207/2209 17006KT CAVOK TX37/2113Z TN23/2204Z
       
TAF LLSD 212306Z 2200/2224 VRB04KT 9999 SCT023 
     TEMPO 2201/2205 BKN020 
     BECMG 2207/2210 28010KT CAVOK 
     BECMG 2214/2216 VRB04KT 9999 SCT025 TX30/2212Z TN26/2203Z
       
LLBG 220220Z 16005KT 9999 FEW022 25/21 Q1008 NOSIG
TAF LLBG 212305Z 2200/2224 15004KT 9999 SCT022 
     TEMPO 2201/2206 BKN020 
     BECMG 2207/2209 CAVOK 
     BECMG 2215/2218 VRB04KT 9999 FEW025 
     BECMG 2221/2223 15004KT SCT025 TX32/2212Z TN25/2203Z
       
TAF LLET 212326Z 2200/2224 36010KT CAVOK 
     BECMG 2205/2207 02015KT 
     PROB30 2214/2219 18005KT 
     BECMG 2220/2222 36010KT TX41/2212Z TN28/2203Z
       
TAF LLHA 212307Z 2200/2224 VRB04KT 9999 SCT023 
     TEMPO 2200/2205 BKN020 
     BECMG 2207/2209 30010KT FEW026 
     BECMG 2216/2219 VRB04KT SCT025 TX31/2212Z TN27/2203Z
       
TAF LLIB 211124Z 2112/2212 17008KT CAVOK 
     BECMG 2113/2115 32010KT 
     BECMG 2117/2119 VRB03KT 9999 FEW020 
     PROB30 2200/2206 6000 SCT015 
     BECMG 2207/2209 17006KT CAVOK TX37/2113Z TN23/2204Z
       
TAF LLSD 212306Z 2200/2224 VRB04KT 9999 SCT023 
     TEMPO 2201/2205 BKN020 
     BECMG 2207/2210 28010KT CAVOK 
     BECMG 2214/2216 VRB04KT 9999 SCT025 TX30/2212Z TN26/2203Z